• Join FlightAware (Why Join?)
  • Login
  • US Flag 
12:30AM EDT


 

Airport Tracker/Info


-or-


 

Live Flight TrackerFlight Track Log ✈ EJA922 ✈ 15-Aug-2013 ✈ KTYS - KSLC

Flight Track Log - Related Links

Times and Time Zones

All times are in EDT time to prevent confusion due to time zone crossing. See the EJA922 flight status page for this flight to view local times or setup timezone preferences in your user account.

Time Position Orientation Groundspeed Altitude Reporting Facility
EDT Latitude Longitude Course Direction KTS MPH feet Rate Location/Type
01:25PM 35.8811 -84.0592 297° West 269 310 6,400  Level Atlanta Center
01:26PM 35.9186 -84.1389 300° West 275 316 8,100 1,800 Climbing Atlanta Center
01:27PM 35.9581 -84.2261 299° West 281 323 10,100 1,800 Climbing Atlanta Center
01:28PM 36.0036 -84.3289 299° West 311 358 11,700 1,980 Climbing Atlanta Center
01:29PM 36.1059 -84.4048 297° West  Level FlightAware Approximate
01:30PM 36.1613 -84.5401 297° West  Level FlightAware Approximate
01:30PM 36.1133 -84.5689 300° West 369 425 16,500  Level Indianapolis Center
01:31PM 36.1647 -84.6828 299° West 381 438 18,100 1,500 Climbing Indianapolis Center
01:32PM 36.2081 -84.8058 294° West 397 457 19,600 1,440 Climbing Indianapolis Center
01:33PM 36.2428 -84.9353 288° West 399 459 21,100 1,620 Climbing Indianapolis Center
01:34PM 36.2875 -85.0933 289° West 409 471 23,000 1,620 Climbing Indianapolis Center
01:35PM 36.3275 -85.2250 291° West 409 471 24,500 1,380 Climbing Indianapolis Center
01:36PM 36.3672 -85.3608 290° West 418 481 25,900 1,320 Climbing Indianapolis Center
01:37PM 36.4092 -85.5003 291° West 429 494 27,300 1,200 Climbing Indianapolis Center
01:38PM 36.4492 -85.6419 289° West 434 499 28,500 1,260 Climbing Indianapolis Center
01:39PM 36.4992 -85.8147 290° West 443 510 30,000 1,500 Climbing Indianapolis Center
01:40PM 36.5406 -85.9561 290° West 454 522 31,700 1,680 Climbing Indianapolis Center
01:41PM 36.5819 -86.0992 290° West 440 506 33,500 1,560 Climbing Indianapolis Center
01:42PM 36.6100 -86.2003 289° West 438 504 34,500 1,500 Climbing Memphis Center
01:43PM 36.6522 -86.3431 290° West 438 504 36,200 1,500 Climbing Memphis Center
01:44PM 36.6922 -86.4858 289° West 438 504 37,500 1,260 Climbing Memphis Center
01:45PM 36.7319 -86.6289 289° West 433 498 38,800 1,140 Climbing Memphis Center
01:46PM 36.7717 -86.7722 289° West 433 498 39,800 600 Climbing Memphis Center
01:47PM 36.8133 -86.9153 290° West 438 504 40,000 60 Climbing Memphis Center
01:48PM 36.8547 -87.0667 289° West 444 511 40,000  Level Memphis Center
01:49PM 36.8942 -87.2156 288° West 449 517 40,000  Level Memphis Center
01:50PM 36.9353 -87.3644 289° West 456 525 40,000  Level Memphis Center
01:51PM 36.9744 -87.5186 288° West 456 525 40,000  Level Memphis Center
01:52PM 37.0172 -87.6706 289° West 456 525 40,000  Level Memphis Center
01:53PM 37.0625 -87.8353 289° West 456 525 40,000  Level Memphis Center
01:54PM 37.1031 -87.9875 289° West 456 525 40,000  Level Memphis Center
01:55PM 37.1456 -88.1422 289° West 461 531 40,000  Level Memphis Center
01:56PM 37.1878 -88.2947 289° West 466 536 40,000  Level Memphis Center
01:57PM 37.2278 -88.4528 288° West 466 536 40,000  Level Memphis Center
01:59PM 37.3014 -88.7519 287° West 467 537 40,000  Level Kansas City Center
02:00PM 37.3408 -88.9075 288° West 469 540 40,000  Level Kansas City Center
02:01PM 37.3806 -89.0636 288° West 471 542 40,000  Level Kansas City Center
02:02PM 37.4219 -89.2242 288° West 480 552 40,000  Level Kansas City Center
02:03PM 37.4617 -89.3811 288° West 477 549 40,000  Level Kansas City Center
02:04PM 37.5008 -89.5361 288° West 473 544 40,000  Level Kansas City Center
02:05PM 37.5472 -89.7258 287° West 473 544 40,000  Level Kansas City Center
02:06PM 37.5864 -89.8833 287° West 475 547 40,000  Level Kansas City Center
02:07PM 37.6272 -90.0464 288° West 480 552 40,000  Level Kansas City Center
02:08PM 37.6669 -90.2094 287° West 483 556 40,000  Level Kansas City Center
02:09PM 37.6981 -90.3739 283° West 482 555 40,000  Level Kansas City Center
02:10PM 37.7217 -90.5375 280° West 477 549 40,000  Level Kansas City Center
02:11PM 37.7469 -90.7031 281° West 479 551 40,000  Level Kansas City Center
02:12PM 37.7772 -90.9011 281° West 478 550 40,000  Level Kansas City Center
02:13PM 37.8019 -91.0653 281° West 476 548 40,000  Level Kansas City Center
02:14PM 37.8250 -91.2164 281° West 472 543 40,000  Level Kansas City Center
02:15PM 37.8542 -91.4125 281° West 472 543 40,000  Level Kansas City Center
02:16PM 37.8783 -91.5764 281° West 472 543 40,000  Level Kansas City Center
02:17PM 37.9036 -91.7406 281° West 474 545 40,000  Level Kansas City Center
02:18PM 37.9278 -91.9058 281° West 476 548 40,000  Level Kansas City Center
02:19PM 37.9528 -92.0808 280° West 475 547 40,000  Level Kansas City Center
02:21PM 37.9764 -92.2481 280° West 480 552 40,000  Level Kansas City Center
02:22PM 38.0006 -92.4158 280° West 485 558 40,000  Level Kansas City Center
02:23PM 38.0244 -92.5806 280° West 480 552 40,000  Level Kansas City Center
02:24PM 38.0472 -92.7508 280° West 472 543 40,000  Level Kansas City Center
02:25PM 38.0692 -92.9153 280° West 472 543 40,000  Level Kansas City Center
02:26PM 38.0961 -93.1106 280° West 470 541 40,000  Level Kansas City Center
02:27PM 38.1186 -93.2733 280° West 468 539 40,000  Level Kansas City Center
02:28PM 38.1397 -93.4364 279° West 468 539 40,000  Level Kansas City Center
02:29PM 38.1617 -93.5983 280° West 465 535 40,000  Level Kansas City Center
02:30PM 38.1822 -93.7614 279° West 466 536 40,100 420 Climbing Kansas City Center
02:31PM 38.2031 -93.9217 279° West 463 533 40,900 720 Climbing Kansas City Center
02:32PM 38.2222 -94.0825 279° West 459 528 41,600 720 Climbing Kansas City Center
02:33PM 38.2447 -94.2683 279° West 456 525 42,500 660 Climbing Kansas City Center
02:34PM 38.2633 -94.4197 279° West 453 521 43,000 240 Climbing Kansas City Center
02:35PM 38.2936 -94.5944 283° West 453 521 43,000  Level Kansas City Center
02:36PM 38.3292 -94.7436 287° West 460 529 43,000  Level Kansas City Center
02:37PM 38.3678 -94.9222 285° West 466 536 43,000  Level Kansas City Center
02:38PM 38.4014 -95.0753 286° West 467 537 43,000  Level Kansas City Center
02:39PM 38.4350 -95.2281 286° West 467 537 43,000  Level Kansas City Center
02:40PM 38.4733 -95.4067 285° West 467 537 43,000  Level Kansas City Center
02:41PM 38.5069 -95.5650 285° West 475 547 43,000  Level Kansas City Center
02:42PM 38.5453 -95.7447 285° West 470 541 43,000  Level Kansas City Center
02:43PM 38.5786 -95.8989 286° West 469 540 43,000  Level Kansas City Center
02:44PM 38.6158 -96.0803 285° West 470 541 43,000  Level Kansas City Center
02:45PM 38.6483 -96.2356 285° West 472 543 43,000  Level Kansas City Center
02:46PM 38.6853 -96.4178 285° West 472 543 43,000  Level Kansas City Center
02:47PM 38.7167 -96.5722 285° West 470 541 43,000  Level Kansas City Center
02:48PM 38.7469 -96.7211 285° West 469 540 43,000  Level Kansas City Center
02:49PM 38.7864 -96.9167 285° West 474 545 43,000  Level Kansas City Center
02:50PM 38.8189 -97.0806 284° West 476 548 43,000  Level Kansas City Center
02:52PM 38.8519 -97.2433 285° West 475 547 43,000  Level Kansas City Center
02:53PM 38.8839 -97.4064 284° West 474 545 43,000  Level Kansas City Center
02:54PM 38.9197 -97.5908 284° West 473 544 43,000  Level Kansas City Center
02:55PM 38.9447 -97.7497 281° West 473 544 43,000  Level Kansas City Center
02:56PM 38.9689 -97.9353 280° West 477 549 43,000  Level Kansas City Center
02:57PM 38.9922 -98.1033 280° West 479 551 43,000  Level Kansas City Center
02:58PM 39.0144 -98.2678 280° West 474 545 43,000  Level Kansas City Center
02:59PM 39.0369 -98.4367 280° West 480 552 43,000  Level Kansas City Center
03:00PM 39.0583 -98.6042 279° West 478 550 43,000  Level Kansas City Center
03:01PM 39.0864 -98.8058 280° West 478 550 43,000  Level Kansas City Center
03:02PM 39.1081 -98.9767 279° West 483 556 43,000  Level Kansas City Center
03:03PM 39.1294 -99.1469 279° West 484 557 43,000  Level Kansas City Center
03:04PM 39.1503 -99.3192 279° West 488 562 43,000  Level Kansas City Center
03:05PM 39.1717 -99.4897 279° West 485 558 43,000  Level Kansas City Center
03:06PM 39.1969 -99.6950 279° West 484 557 43,000  Level Kansas City Center
03:07PM 39.2161 -99.8583 279° West 484 557 43,000  Level Kansas City Center
03:08PM 39.2378 -100.0464 279° West 480 552 43,000  Level Kansas City Center
03:09PM 39.2572 -100.2086 279° West 479 551 43,000  Level Kansas City Center
03:11PM 39.2808 -100.4631 277° West 480 552 43,000  Level Denver Center
03:12PM 39.2958 -100.6250 277° West 477 549 43,000  Level Denver Center
03:13PM 39.3156 -100.8417 277° West 475 547 43,000  Level Denver Center
03:14PM 39.3292 -101.0031 276° West 473 544 43,000  Level Denver Center
03:15PM 39.3475 -101.2169 276° West 469 540 43,000  Level Denver Center
03:16PM 39.3614 -101.3789 276° West 472 543 43,000  Level Denver Center
03:17PM 39.3769 -101.5669 276° West 470 541 43,000  Level Denver Center
03:18PM 39.3919 -101.7292 277° West 473 544 43,000  Level Denver Center
03:19PM 39.4139 -101.9186 279° West 475 547 43,000  Level Denver Center
03:20PM 39.4311 -102.0792 278° West 471 542 43,000  Level Denver Center
03:21PM 39.4517 -102.2647 278° West 467 537 43,000  Level Denver Center
03:22PM 39.4689 -102.4133 279° West 471 542 43,000  Level Denver Center
03:23PM 39.4906 -102.6122 278° West 469 540 43,000  Level Denver Center
03:24PM 39.5078 -102.7778 278° West 466 536 43,000  Level Denver Center
03:25PM 39.5250 -102.9456 278° West 469 540 43,000  Level Denver Center
03:26PM 39.5436 -103.1128 278° West 471 542 43,000  Level Denver Center
03:27PM 39.5594 -103.2794 277° West 469 540 43,000  Level Denver Center
03:29PM 39.5808 -103.4794 278° West 468 539 43,000  Level Denver Center
03:30PM 39.5969 -103.6464 277° West 469 540 43,000  Level Denver Center
03:31PM 39.6133 -103.8119 277° West 471 542 43,000  Level Denver Center
03:32PM 39.6289 -103.9756 277° West 450 518 43,000  Level Denver Center
03:33PM 39.6453 -104.1419 277° West 466 536 43,000  Level Denver Center
03:34PM 39.6608 -104.3053 277° West 458 527 43,000  Level Denver Center
03:35PM 39.6792 -104.4989 277° West 465 535 43,000  Level Denver Center
03:36PM 39.6956 -104.6603 278° West 461 531 43,000  Level Denver Center
03:37PM 39.7164 -104.8211 280° West 473 544 43,000  Level Denver Center
03:38PM 39.7361 -104.9844 279° West 462 532 43,000  Level Denver Center
03:39PM 39.7592 -105.1792 279° West 454 522 43,000  Level Denver Center
03:40PM 39.7792 -105.3419 279° West 456 525 43,000  Level Denver Center
03:41PM 39.8000 -105.5031 280° West 448 516 43,000  Level Denver Center
03:42PM 39.8208 -105.6661 279° West 456 525 43,000  Level Denver Center
03:43PM 39.8353 -105.7986 278° West 456 525 43,000  Level Denver Center
03:44PM 39.8619 -106.0239 279° West 457 526 43,000  Level Denver Center
03:45PM 39.8800 -106.1867 278° West 457 526 43,000  Level Denver Center
03:46PM 39.9006 -106.3492 279° West 457 526 43,000  Level Denver Center
03:47PM 39.9169 -106.5050 278° West 457 526 43,000  Level Denver Center
03:48PM 39.9358 -106.6675 279° West 457 526 43,000  Level Denver Center
03:49PM 39.9569 -106.8631 278° West 449 517 43,000  Level Denver Center
03:50PM 39.9742 -107.0181 278° West 453 521 43,000  Level Denver Center
03:51PM 39.9919 -107.1989 277° West 452 520 43,000 -300 Level Denver Center
03:52PM 40.0072 -107.3278 279° West 454 522 42,500 -1,020 Descending Denver Center
03:53PM 40.0283 -107.5383 278° West 460 529 41,000 -1,200 Descending Denver Center
03:54PM 40.0425 -107.6686 278° West 458 527 40,100 -540 Descending Denver Center
03:55PM 40.0633 -107.8786 277° West 460 529 40,000 -60 Descending Denver Center
03:56PM 40.0739 -108.0389 275° West 465 535 40,000  Level Denver Center
03:58PM 40.0817 -108.2253 273° West 464 534 40,000  Level Denver Center
03:59PM 40.0886 -108.3839 273° West 461 531 40,000  Level Denver Center
04:00PM 40.0961 -108.5708 273° West 463 533 40,000  Level Denver Center
04:01PM 40.1022 -108.7325 273° West 466 536 40,000  Level Denver Center
04:02PM 40.1094 -108.9192 273° West 465 535 40,000  Level Denver Center
04:03PM 40.1158 -109.0789 273° West 463 533 40,000  Level Denver Center
04:03PM 40.1194 -109.1847 273° West 461 531 40,000  Level Salt Lake Center
04:04PM 40.1244 -109.3436 272° West 460 529 40,000  Level Salt Lake Center
04:05PM 40.1311 -109.5300 273° West 461 531 40,000  Level Salt Lake Center
04:06PM 40.1358 -109.6900 272° West 462 532 40,000 -540 Level Salt Lake Center
04:07PM 40.1417 -109.8781 272° West 463 533 39,000 -1,680 Descending Salt Lake Center
04:08PM 40.1461 -110.0350 272° West 455 524 36,600 -2,640 Descending Salt Lake Center
04:09PM 40.1481 -110.2214 271° West 459 528 33,600 -2,400 Descending Salt Lake Center
04:11PM 40.1469 -110.3928 270° West 490 564 31,600 -2,040 Descending Salt Lake Center
04:12PM 40.1456 -110.6003 270° West 510 587 29,400 -2,040 Descending Salt Lake Center
04:13PM 40.1436 -110.7747 269° West 505 581 27,400 -2,040 Descending Salt Lake Center
04:14PM 40.1414 -110.9717 269° West 499 574 25,200 -2,040 Descending Salt Lake Center
04:15PM 40.1378 -111.1481 269° West 489 563 23,200 -1,860 Descending Salt Lake Center
04:16PM 40.1344 -111.3150 269° West 465 535 21,400 -1,920 Descending Salt Lake Center
04:16PM 40.1289 -111.4244 266° West 451 519 20,200 -1,860 Descending Salt Lake Center
04:17PM 40.1278 -111.5258 269° West 410 472 19,100 -840 Descending Salt Lake Center
04:18PM 40.1508 -111.6064 291° West 375 432 19,000 -60 Descending Salt Lake Center
04:19PM 40.2064 -111.7525 297° West 376 433 19,000 -480 Level Salt Lake Center
04:20PM 40.2511 -111.8747 296° West 366 421 18,100 -1,260 Descending Salt Lake Center
04:21PM 40.3150 -111.9719 311° West 354 407 16,400 -1,440 Descending Salt Lake Center
04:22PM 40.3997 -112.0350 330° Northwest 352 405 15,200 -1,680 Descending Salt Lake Center
04:23PM 40.5092 -112.0658 348° North 364 419 12,900 -1,800 Descending Salt Lake Center
04:24PM 40.5950 -112.0731 356° North 350 403 11,500 -960 Descending Salt Lake Center
04:25PM 40.7031 -112.0881 354° North 343 395 11,000 -300 Descending Salt Lake Center
04:26PM 40.7928 -112.0964 356° North 283 326 11,000  Level Salt Lake Center
04:27PM 40.8594 -112.1061 354° North 261 300 11,000 -780 Level Salt Lake Center
04:28PM 40.9297 -112.1133 356° North 255 293 9,500 -1,560 Descending Salt Lake Center
04:29PM 40.9642 -112.0364 59° Northeast 247 284 7,900 -1,380 Descending Salt Lake Center
04:30PM 40.9308 -111.9767 126° Southeast 217 250 6,700 -960 Descending Salt Lake Center
04:31PM 40.8825 -111.9619 167° South 176 203 5,900 -900 Descending Salt Lake Center
04:32PM 40.8339 -111.9644 182° South 155 178 4,900 -840 Descending Salt Lake Center
04:33PM 40.7894 -111.9622 178° South 145 167 4,200 -660 Descending Salt Lake Center
04:35PM 40.7833 -111.9667 180° South  Level FlightAware Approximate